Time;durP1;ratioP1;P1;durP2;ratioP2;P2;SDS_P1;SDS_P2;PMS_P1;PMS_P2;Temp;Humidity;BMP_temperature;BMP_pressure;BME280_temperature;BME280_humidity;BME280_pressure;Samples;Min_cycle;Max_cycle;Signal;HPM_P1;HPM_P2
2024/01/05 03:26:58;;;;;;;2.95;0.98;;;;;;;7.06;100.00;99482.00;5073097;28;20102;-86
2024/01/05 03:43:11;;;;;;;7.50;1.27;;;;;;;7.22;100.00;99460.84;5076156;28;20477;-86
2024/01/05 03:49:41;;;;;;;8.25;0.93;;;;;;;7.29;100.00;99445.41;5076588;28;20039;-86
2024/01/05 03:55:32;;;;;;;5.88;0.70;;;;;;;7.19;100.00;99438.69;5076668;28;20052;-86
2024/01/05 04:01:24;;;;;;;5.90;0.70;;;;;;;7.18;100.00;99428.94;5076314;28;20047;-86
2024/01/05 04:03:49;;;;;;;6.60;0.77;;;;;;;7.19;100.00;99429.78;5042058;28;20036;-86
2024/01/05 04:06:19;;;;;;;3.20;0.53;;;;;;;7.21;100.00;99416.88;5025362;28;20036;-86
2024/01/05 04:08:51;;;;;;;5.25;0.60;;;;;;;7.26;100.00;99413.47;5058930;28;20079;-86
2024/01/05 04:14:49;;;;;;;8.43;0.80;;;;;;;7.31;100.00;99394.75;5076118;28;20032;-86
2024/01/05 04:24:02;;;;;;;3.35;0.82;;;;;;;7.36;100.00;99392.16;5080447;28;20051;-87
2024/01/05 04:26:27;;;;;;;5.63;0.80;;;;;;;7.35;100.00;99382.41;5042044;28;20482;-86
2024/01/05 04:28:53;;;;;;;3.70;0.70;;;;;;;7.40;100.00;99377.16;5041156;28;20459;-87
2024/01/05 04:31:18;;;;;;;5.70;0.80;;;;;;;7.38;100.00;99372.00;5024931;28;20044;-87
2024/01/05 04:33:43;;;;;;;6.00;0.70;;;;;;;7.43;100.00;99367.78;5041523;28;20047;-87
2024/01/05 04:36:10;;;;;;;2.63;0.80;;;;;;;7.39;100.00;99362.03;5075923;28;20115;-86
2024/01/05 04:38:35;;;;;;;5.60;1.10;;;;;;;7.38;100.00;99374.69;5041870;28;20029;-87
2024/01/05 04:41:02;;;;;;;8.00;1.03;;;;;;;7.38;100.00;99357.66;5057759;28;20477;-87
2024/01/05 04:43:27;;;;;;;6.55;0.70;;;;;;;7.33;100.00;99358.38;5057764;28;20056;-87
2024/01/05 04:45:53;;;;;;;4.07;0.57;;;;;;;7.28;100.00;99347.47;5040241;28;20477;-87
2024/01/05 04:48:18;;;;;;;3.93;0.90;;;;;;;7.26;100.00;99354.94;5040934;28;20037;-87
2024/01/05 04:50:44;;;;;;;7.93;0.77;;;;;;;7.23;100.00;99349.19;5057992;28;20039;-87
2024/01/05 04:53:09;;;;;;;7.03;0.88;;;;;;;7.24;100.00;99351.66;5041130;28;20514;-86
2024/01/05 04:55:34;;;;;;;4.90;0.70;;;;;;;7.24;100.00;99337.38;5057663;28;20033;-86
2024/01/05 04:58:00;;;;;;;7.03;0.70;;;;;;;7.24;100.00;99331.97;5057332;28;20028;-86
2024/01/05 05:00:26;;;;;;;5.50;0.77;;;;;;;7.27;100.00;99334.19;5057447;28;20060;-87
2024/01/05 05:02:51;;;;;;;7.23;0.77;;;;;;;7.24;100.00;99324.69;5040892;28;20033;-86
2024/01/05 05:05:16;;;;;;;4.87;0.67;;;;;;;7.33;100.00;99317.09;5057202;28;20061;-86
2024/01/05 05:07:42;;;;;;;5.80;0.70;;;;;;;7.33;100.00;99333.28;5058268;28;20082;-86
2024/01/05 05:10:08;;;;;;;6.15;0.80;;;;;;;7.26;100.00;99324.44;5075184;28;20033;-87
2024/01/05 05:12:33;;;;;;;4.63;0.52;;;;;;;7.20;100.00;99321.63;5057451;28;20040;-86
2024/01/05 05:14:59;;;;;;;4.73;0.90;;;;;;;7.16;100.00;99328.53;5040580;28;20213;-87
2024/01/05 05:17:24;;;;;;;6.95;0.93;;;;;;;7.18;100.00;99321.03;5059554;28;20056;-86
2024/01/05 05:19:54;;;;;;;5.77;1.20;;;;;;;7.20;100.00;99323.50;5057196;28;20523;-86
2024/01/05 05:22:20;;;;;;;4.00;0.70;;;;;;;7.16;100.00;99317.75;5041763;28;20155;-87
2024/01/05 05:24:45;;;;;;;6.63;0.97;;;;;;;7.19;100.00;99325.38;5040284;28;20135;-87
2024/01/05 05:27:10;;;;;;;7.27;0.70;;;;;;;7.25;100.00;99323.63;5040285;28;20028;-87
2024/01/05 05:29:36;;;;;;;6.05;0.75;;;;;;;7.27;100.00;99326.09;5057263;28;20091;-87
2024/01/05 05:32:01;;;;;;;3.77;0.63;;;;;;;7.28;100.00;99312.38;5057190;28;20037;-86
2024/01/05 05:34:27;;;;;;;3.77;0.70;;;;;;;7.31;100.00;99321.91;5057273;28;20032;-86
2024/01/05 05:37:07;;;;;;;2.83;0.50;;;;;;;7.41;100.00;99321.31;5056887;28;20464;-86
2024/01/05 05:42:55;;;;;;;4.47;0.63;;;;;;;7.49;100.00;99319.09;5074566;28;20031;-86
2024/01/05 05:45:20;;;;;;;3.00;0.90;;;;;;;7.49;100.00;99304.78;5024287;28;20036;-86
2024/01/05 05:47:45;;;;;;;4.43;0.47;;;;;;;7.50;100.00;99320.75;5039976;28;20102;-86
2024/01/05 05:50:13;;;;;;;4.00;0.43;;;;;;;7.48;100.00;99303.94;5040454;28;20031;-86
2024/01/05 05:52:39;;;;;;;4.90;0.77;;;;;;;7.65;100.00;99320.28;5074158;28;20032;-86
2024/01/05 05:55:05;;;;;;;2.33;0.57;;;;;;;7.66;100.00;99321.94;5056140;28;20039;-86
2024/01/05 05:57:31;;;;;;;1.38;0.40;;;;;;;7.66;100.00;99308.44;5023559;28;20067;-86
2024/01/05 05:59:57;;;;;;;2.77;0.30;;;;;;;7.69;100.00;99320.63;5057267;28;20032;-86
2024/01/05 06:02:22;;;;;;;1.20;0.20;;;;;;;7.66;100.00;99327.34;5074273;28;20731;-86
2024/01/05 06:04:47;;;;;;;0.83;0.20;;;;;;;7.63;100.00;99321.56;5039553;28;20370;-86
2024/01/05 06:07:13;;;;;;;0.60;0.20;;;;;;;7.65;100.00;99322.19;5023721;28;20102;-86
2024/01/05 06:09:38;;;;;;;0.90;0.30;;;;;;;7.59;100.00;99329.34;5040106;28;20469;-84
2024/01/05 06:12:04;;;;;;;0.55;0.20;;;;;;;7.58;100.00;99329.56;5073989;28;20044;-86
2024/01/05 06:14:30;;;;;;;0.80;0.35;;;;;;;7.52;100.00;99334.00;5055982;28;20040;-85
2024/01/05 06:16:55;;;;;;;0.65;0.20;;;;;;;7.49;100.00;99326.38;5056193;28;20032;-85
2024/01/05 06:19:21;;;;;;;0.35;0.30;;;;;;;7.43;100.00;99333.53;5056123;28;20040;-84
2024/01/05 06:21:46;;;;;;;0.67;0.20;;;;;;;7.38;100.00;99322.59;5056089;28;20028;-84
2024/01/05 06:24:11;;;;;;;0.20;0.10;;;;;;;7.43;100.00;99324.63;5056019;28;20130;-84
2024/01/05 06:26:39;;;;;;;1.33;0.20;;;;;;;7.43;100.00;99319.22;5056628;28;20079;-84
2024/01/05 06:29:09;;;;;;;0.85;0.20;;;;;;;7.38;100.00;99323.44;5040681;28;20115;-84
2024/01/05 07:34:58;;;;;;;1.75;0.10;;;;;;;7.07;100.00;99340.72;5075913;28;20095;-85
2024/01/05 07:41:23;;;;;;;0.57;0.20;;;;;;;6.13;100.00;99344.53;5055889;28;20041;-85
2024/01/05 07:43:48;;;;;;;3.25;0.20;;;;;;;6.15;100.00;99347.00;5039323;28;20041;-85
2024/01/05 07:46:14;;;;;;;0.30;0.20;;;;;;;5.90;100.00;99355.09;5038847;28;20370;-84
2024/01/05 07:48:43;;;;;;;0.63;0.20;;;;;;;5.88;100.00;99363.38;5039267;28;20060;-84
2024/01/05 07:51:09;;;;;;;1.27;0.20;;;;;;;5.71;100.00;99356.91;5039190;28;20033;-84
2024/01/05 07:53:34;;;;;;;0.52;0.20;;;;;;;5.62;100.00;99353.66;5056780;28;20151;-84
2024/01/05 07:56:21;;;;;;;0.88;0.32;;;;;;;5.55;100.00;99377.94;5006175;28;20128;-84
2024/01/05 07:58:46;;;;;;;1.33;0.20;;;;;;;5.47;100.00;99361.25;5039635;28;20087;-84
2024/01/05 08:01:20;;;;;;;2.17;0.28;;;;;;;5.37;100.00;99351.78;5039364;28;20041;-84
2024/01/05 08:03:46;;;;;;;0.98;0.30;;;;;;;5.35;100.00;99350.38;5038692;28;20035;-84
2024/01/05 08:06:16;;;;;;;0.55;0.20;;;;;;;5.33;100.00;99358.66;5056762;28;20033;-84
2024/01/05 08:08:55;;;;;;;4.15;0.20;;;;;;;5.23;100.00;99352.94;5039366;28;20041;-83
2024/01/05 08:14:43;;;;;;;0.80;0.20;;;;;;;5.14;100.00;99341.59;5056488;28;20043;-84
2024/01/05 08:20:32;;;;;;;0.98;0.20;;;;;;;5.15;100.00;99358.56;5055172;28;20118;-84
2024/01/05 08:26:37;;;;;;;1.02;0.32;;;;;;;5.16;100.00;99363.72;5056131;28;20040;-84
2024/01/05 08:32:24;;;;;;;1.50;0.30;;;;;;;5.16;100.00;99365.59;5056330;28;20040;-84
2024/01/05 08:38:25;;;;;;;0.60;0.20;;;;;;;5.08;100.00;99393.56;5075044;28;20056;-84
2024/01/05 08:40:52;;;;;;;1.25;0.20;;;;;;;5.00;100.00;99370.41;5058226;28;20033;-83
2024/01/05 08:43:18;;;;;;;0.68;0.22;;;;;;;5.00;100.00;99374.97;5078227;28;20032;-83
2024/01/05 08:45:44;;;;;;;3.05;0.32;;;;;;;4.95;100.00;99378.31;5096084;28;20031;-83
2024/01/05 08:48:11;;;;;;;0.30;0.20;;;;;;;4.88;100.00;99377.53;5061570;28;20036;-83
2024/01/05 08:50:37;;;;;;;1.67;0.20;;;;;;;4.83;100.00;99398.84;5061542;28;20106;-83
2024/01/05 08:53:03;;;;;;;0.60;0.30;;;;;;;4.75;100.00;99399.91;5060960;28;20456;-83
2024/01/05 08:55:29;;;;;;;0.40;0.20;;;;;;;4.61;100.00;99392.94;5077590;28;20335;-83
2024/01/05 08:57:54;;;;;;;1.40;0.30;;;;;;;4.49;100.00;99390.91;5077488;28;20050;-83
2024/01/05 09:00:20;;;;;;;0.70;0.30;;;;;;;4.39;100.00;99396.69;5095989;28;20082;-83
2024/01/05 09:02:45;;;;;;;0.97;0.27;;;;;;;4.32;100.00;99397.75;5077635;28;20028;-83
2024/01/05 09:05:10;;;;;;;1.07;0.20;;;;;;;4.19;100.00;99398.59;5095494;28;20031;-83
2024/01/05 09:07:36;;;;;;;0.45;0.28;;;;;;;4.09;100.00;99395.53;5060335;28;20278;-83
2024/01/05 09:10:01;;;;;;;0.73;0.30;;;;;;;4.03;100.00;99413.28;5077321;28;20032;-83
2024/01/05 09:12:27;;;;;;;0.70;0.30;;;;;;;4.03;100.00;99416.81;5095479;28;20482;-83
2024/01/05 09:14:53;;;;;;;0.32;0.20;;;;;;;4.00;100.00;99417.22;5095425;28;20107;-83
2024/01/05 09:17:19;;;;;;;0.68;0.30;;;;;;;4.02;100.00;99408.97;5095383;28;20085;-83
2024/01/05 09:19:45;;;;;;;1.80;0.50;;;;;;;4.08;100.00;99418.03;5077164;28;20032;-83
2024/01/05 09:22:11;;;;;;;1.50;0.50;;;;;;;4.06;100.00;99402.16;5077144;28;20491;-83
2024/01/05 09:24:39;;;;;;;0.80;0.40;;;;;;;4.10;100.00;99421.34;5076945;28;20073;-82
2024/01/05 09:27:05;;;;;;;2.28;0.52;;;;;;;4.09;100.00;99393.69;5095533;28;20055;-83
2024/01/05 09:29:31;;;;;;;1.75;0.57;;;;;;;4.13;100.00;99407.50;5060583;28;20066;-83
2024/01/05 09:31:57;;;;;;;5.13;0.60;;;;;;;4.13;100.00;99423.59;5095011;28;20074;-83
2024/01/05 09:34:22;;;;;;;0.95;0.43;;;;;;;4.13;100.00;99415.53;5076890;28;20036;-83
2024/01/05 09:36:48;;;;;;;0.47;0.30;;;;;;;4.14;100.00;99425.25;5077404;28;20080;-82
2024/01/05 09:39:14;;;;;;;2.67;0.63;;;;;;;4.16;100.00;99425.88;5060600;28;20483;-83
2024/01/05 09:41:41;;;;;;;4.63;0.80;;;;;;;4.17;100.00;99431.03;5095175;28;20067;-82
2024/01/05 09:44:06;;;;;;;1.35;0.73;;;;;;;4.19;100.00;99433.50;5076687;28;20092;-83
2024/01/05 09:46:33;;;;;;;1.70;0.70;;;;;;;4.20;100.00;99427.09;5077134;28;20128;-83
2024/01/05 09:49:00;;;;;;;2.20;1.05;;;;;;;4.24;100.00;99419.44;5076738;28;20185;-83
2024/01/05 09:51:29;;;;;;;3.33;1.00;;;;;;;4.30;100.00;99438.25;5060525;28;20392;-83
2024/01/05 09:53:54;;;;;;;2.33;0.82;;;;;;;4.33;100.00;99434.31;5076606;28;20036;-83
2024/01/05 09:56:21;;;;;;;4.10;0.93;;;;;;;4.35;100.00;99446.47;5076606;28;20391;-82
2024/01/05 09:58:50;;;;;;;1.70;0.98;;;;;;;4.38;100.00;99434.50;5077207;28;20505;-83
2024/01/05 10:01:25;;;;;;;2.67;0.97;;;;;;;4.41;100.00;99433.28;5094842;28;20028;-83
2024/01/05 10:04:01;;;;;;;5.18;1.48;;;;;;;4.44;100.00;99446.28;5076624;28;20289;-83
2024/01/05 10:06:28;;;;;;;5.07;1.02;;;;;;;4.49;100.00;99430.38;5075906;28;20031;-83
2024/01/05 10:08:58;;;;;;;2.63;1.38;;;;;;;4.56;100.00;99423.94;5075935;28;20032;-84
2024/01/05 10:11:32;;;;;;;4.00;1.75;;;;;;;4.63;100.00;99428.47;5094284;28;20031;-83
2024/01/05 10:14:06;;;;;;;3.33;1.45;;;;;;;4.70;100.00;99448.91;5076186;28;20033;-85
2024/01/05 10:16:36;;;;;;;2.20;1.42;;;;;;;4.80;100.00;99428.81;5076457;28;20050;-83
2024/01/05 10:19:13;;;;;;;1.90;1.05;;;;;;;4.84;100.00;99436.25;5094993;28;20543;-83
2024/01/05 10:21:40;;;;;;;4.10;1.20;;;;;;;4.79;100.00;99425.31;5094721;28;20032;-83
2024/01/05 10:24:24;;;;;;;4.28;1.50;;;;;;;4.88;100.00;99415.97;5094011;28;20040;-83
2024/01/05 10:27:02;;;;;;;2.45;1.38;;;;;;;5.01;100.00;99436.59;5093891;28;20024;-84
2024/01/05 10:29:28;;;;;;;1.75;1.05;;;;;;;5.06;100.00;99427.88;5094007;28;20043;-83
2024/01/05 10:31:53;;;;;;;2.10;1.10;;;;;;;5.14;100.00;99424.13;5076011;28;20035;-83
2024/01/05 10:34:19;;;;;;;4.07;1.00;;;;;;;5.19;100.00;99429.69;5076334;28;20101;-83
2024/01/05 10:36:44;;;;;;;5.27;1.23;;;;;;;5.22;100.00;99422.00;5075951;28;20534;-83
2024/01/05 10:39:10;;;;;;;2.83;0.93;;;;;;;5.23;100.00;99422.84;5072196;28;20067;-84
2024/01/05 10:41:36;;;;;;;1.60;0.70;;;;;;;5.21;100.00;99432.97;5038731;28;20051;-83
2024/01/05 10:44:03;;;;;;;1.13;0.70;;;;;;;5.23;100.00;99423.66;5055390;28;20062;-83
2024/01/05 10:46:31;;;;;;;1.77;0.50;;;;;;;5.30;100.00;99433.56;5059186;28;20032;-83
2024/01/05 10:48:56;;;;;;;3.17;0.60;;;;;;;5.32;100.00;99429.63;5093845;28;20027;-83
2024/01/05 10:51:25;;;;;;;1.30;0.40;;;;;;;5.31;100.00;99448.66;5076604;28;20036;-83
2024/01/05 10:53:51;;;;;;;2.63;0.50;;;;;;;5.34;100.00;99424.84;5075771;28;20131;-83
2024/01/05 10:56:18;;;;;;;1.17;0.50;;;;;;;5.37;100.00;99424.41;5094094;28;20036;-83
2024/01/05 10:58:47;;;;;;;2.83;0.65;;;;;;;5.36;100.00;99428.16;5075385;28;20043;-83
2024/01/05 11:01:13;;;;;;;1.88;0.47;;;;;;;5.42;100.00;99435.34;5059834;28;20039;-83
2024/01/05 11:07:01;;;;;;;1.88;0.50;;;;;;;5.43;100.00;99428.94;5093800;28;20128;-83
2024/01/05 11:09:47;;;;;;;1.48;0.50;;;;;;;5.44;100.00;99427.06;5058576;28;20040;-83
2024/01/05 11:12:33;;;;;;;1.38;0.50;;;;;;;5.53;100.00;99438.38;5076125;28;20119;-83
2024/01/05 11:15:36;;;;;;;1.85;0.50;;;;;;;5.49;100.00;99431.78;5075301;28;20037;-84
2024/01/05 11:18:19;;;;;;;0.90;0.50;;;;;;;5.49;100.00;99442.56;5093597;28;20073;-83
2024/01/05 11:21:02;;;;;;;2.20;0.60;;;;;;;5.55;100.00;99439.00;5093965;28;20028;-83
2024/01/05 11:23:29;;;;;;;2.13;0.52;;;;;;;5.51;100.00;99416.28;5075890;28;20031;-83
2024/01/05 11:25:55;;;;;;;2.15;0.70;;;;;;;5.53;100.00;99443.78;5075341;28;20097;-83
2024/01/05 11:28:34;;;;;;;1.53;0.70;;;;;;;5.56;100.00;99454.91;5093481;28;20032;-84
2024/01/05 11:31:00;;;;;;;1.30;0.70;;;;;;;5.56;100.00;99451.41;5075907;28;20274;-84
2024/01/05 11:33:48;;;;;;;2.85;0.88;;;;;;;5.56;100.00;99424.50;5058842;28;20028;-83
2024/01/05 11:36:33;;;;;;;3.87;0.90;;;;;;;5.61;100.00;99428.19;5075541;28;20032;-83
2024/01/05 11:38:59;;;;;;;2.22;1.00;;;;;;;5.63;100.00;99434.16;5078088;28;20093;-84
2024/01/05 11:41:24;;;;;;;2.43;0.87;;;;;;;5.65;100.00;99431.25;5094085;28;20060;-84
2024/01/05 11:43:50;;;;;;;3.22;0.85;;;;;;;5.62;100.00;99437.09;5075664;28;20032;-84
2024/01/05 11:46:16;;;;;;;2.17;0.90;;;;;;;5.50;100.00;99422.69;5042676;28;20035;-83
2024/01/05 11:48:41;;;;;;;2.80;0.95;;;;;;;5.47;100.00;99448.16;5058911;28;20024;-83
2024/01/05 11:51:08;;;;;;;1.57;0.93;;;;;;;5.49;100.00;99429.09;5094397;28;20024;-83
2024/01/05 11:53:33;;;;;;;2.22;0.93;;;;;;;5.52;100.00;99431.34;5094858;28;20480;-84
2024/01/05 11:56:00;;;;;;;2.90;1.03;;;;;;;5.55;100.00;99421.00;5046459;28;20035;-83
2024/01/05 11:58:35;;;;;;;1.75;0.90;;;;;;;5.61;100.00;99424.69;5097508;28;20140;-84
2024/01/05 12:01:10;;;;;;;2.50;0.90;;;;;;;5.54;100.00;99434.66;5097772;28;20028;-83
2024/01/05 12:03:38;;;;;;;1.60;0.80;;;;;;;5.44;100.00;99437.81;5079490;28;20025;-84
2024/01/05 12:06:05;;;;;;;2.47;0.85;;;;;;;5.27;100.00;99421.38;5062736;28;20032;-83
2024/01/05 12:08:30;;;;;;;2.78;1.10;;;;;;;5.20;100.00;99417.91;5079010;28;20069;-83
2024/01/05 12:10:58;;;;;;;2.53;1.17;;;;;;;5.09;100.00;99430.13;5062208;28;20565;-84
2024/01/05 12:13:26;;;;;;;5.40;1.08;;;;;;;5.08;100.00;99407.81;5097108;28;20059;-83
2024/01/05 12:15:57;;;;;;;2.97;1.50;;;;;;;5.05;100.00;99412.81;5078945;28;20034;-83
2024/01/05 12:18:26;;;;;;;3.47;1.40;;;;;;;5.03;100.00;99425.63;5079426;28;20134;-83
2024/01/05 12:21:01;;;;;;;4.78;2.13;;;;;;;5.04;100.00;99421.91;5079052;28;20032;-83
2024/01/05 12:23:28;;;;;;;3.70;1.80;;;;;;;5.05;100.00;99431.63;5078725;28;20024;-83
2024/01/05 12:26:10;;;;;;;3.80;1.50;;;;;;;5.10;100.00;99421.03;5096289;28;20060;-83
2024/01/05 12:28:39;;;;;;;5.35;2.15;;;;;;;5.10;100.00;99412.97;5097319;28;20054;-83
2024/01/05 12:31:10;;;;;;;8.55;2.58;;;;;;;5.09;100.00;99416.69;5079097;28;20036;-83
2024/01/05 12:33:37;;;;;;;3.67;2.00;;;;;;;5.10;100.00;99421.03;5079567;28;20472;-83
2024/01/05 12:36:11;;;;;;;4.97;2.30;;;;;;;5.13;100.00;99420.63;5096404;28;20115;-83
2024/01/05 12:38:37;;;;;;;4.75;2.25;;;;;;;5.15;100.00;99415.84;5080516;28;20464;-83
2024/01/05 12:41:10;;;;;;;5.23;2.50;;;;;;;5.16;100.00;99424.75;5096510;28;20050;-83
2024/01/05 12:43:36;;;;;;;5.78;2.67;;;;;;;5.17;100.00;99429.09;5079489;28;20286;-84
2024/01/05 12:46:04;;;;;;;7.53;3.22;;;;;;;5.18;100.00;99438.78;5096815;28;20039;-82
2024/01/05 12:48:30;;;;;;;7.70;2.97;;;;;;;5.17;100.00;99413.78;5096219;28;20031;-83
2024/01/05 12:51:11;;;;;;;7.53;3.38;;;;;;;5.18;100.00;99428.88;5096807;28;20032;-83
2024/01/05 12:53:37;;;;;;;12.33;4.00;;;;;;;5.22;100.00;99423.88;5096591;28;20463;-82
2024/01/05 12:56:14;;;;;;;9.15;3.40;;;;;;;5.21;100.00;99425.75;5096711;28;20028;-82
2024/01/05 12:58:44;;;;;;;4.35;2.78;;;;;;;5.24;100.00;99419.94;5096123;28;20097;-83
2024/01/05 13:01:19;;;;;;;6.33;2.93;;;;;;;5.26;100.00;99428.59;5078524;28;20158;-82
2024/01/05 13:03:52;;;;;;;9.40;3.35;;;;;;;5.24;100.00;99424.47;5063248;28;20482;-83
2024/01/05 13:06:19;;;;;;;9.82;3.70;;;;;;;5.22;100.00;99431.94;5096318;28;20032;-83
2024/01/05 13:08:45;;;;;;;5.88;3.70;;;;;;;5.28;100.00;99433.78;5096468;28;20028;-83
2024/01/05 13:11:12;;;;;;;8.48;3.55;;;;;;;5.26;100.00;99468.13;5077876;28;20070;-83
2024/01/05 13:13:37;;;;;;;5.77;3.00;;;;;;;5.24;100.00;99454.06;5096492;28;20036;-83
2024/01/05 13:16:03;;;;;;;6.30;3.60;;;;;;;5.21;100.00;99441.03;5078013;28;20035;-82
2024/01/05 13:18:29;;;;;;;7.10;3.90;;;;;;;5.19;100.00;99448.50;5045469;28;20028;-83
2024/01/05 13:20:54;;;;;;;8.27;4.20;;;;;;;5.21;100.00;99441.88;5095946;28;20039;-82
2024/01/05 13:23:20;;;;;;;8.30;3.60;;;;;;;5.21;100.00;99449.97;5060658;28;20028;-85
2024/01/05 13:25:45;;;;;;;7.60;3.57;;;;;;;5.23;100.00;99450.56;5078282;28;20111;-83
2024/01/05 13:28:11;;;;;;;10.20;3.70;;;;;;;5.21;100.00;99446.41;5096478;28;20101;-83
2024/01/05 13:30:37;;;;;;;5.88;3.22;;;;;;;5.19;100.00;99454.72;5078537;28;20028;-82
2024/01/05 13:33:03;;;;;;;7.15;3.05;;;;;;;5.18;100.00;99450.38;5078154;28;20032;-83
2024/01/05 13:35:28;;;;;;;6.87;4.17;;;;;;;5.18;100.00;99457.59;5077837;28;20040;-83
2024/01/05 13:37:53;;;;;;;6.70;3.93;;;;;;;5.18;100.00;99479.97;5095811;28;20039;-82
2024/01/05 13:40:19;;;;;;;10.97;4.03;;;;;;;5.19;100.00;99461.97;5077237;28;20056;-82
2024/01/05 13:42:44;;;;;;;7.45;3.90;;;;;;;5.22;100.00;99469.59;5077867;28;20043;-83
2024/01/05 13:45:10;;;;;;;9.63;4.22;;;;;;;5.25;100.00;99474.53;5061075;28;20429;-83
2024/01/05 13:47:35;;;;;;;7.63;3.67;;;;;;;5.20;100.00;99475.19;5096249;28;20049;-83
2024/01/05 13:50:02;;;;;;;5.85;3.58;;;;;;;5.26;100.00;99484.28;5096833;28;20274;-83
2024/01/05 13:52:27;;;;;;;8.73;4.22;;;;;;;5.21;100.00;99471.47;5078401;28;20055;-83
2024/01/05 13:54:53;;;;;;;7.95;4.13;;;;;;;5.20;100.00;99506.63;5060813;28;20043;-82
2024/01/05 13:57:19;;;;;;;6.50;4.40;;;;;;;5.15;100.00;99485.75;5061301;28;20039;-83
2024/01/05 13:59:45;;;;;;;7.47;3.30;;;;;;;5.18;100.00;99488.03;5095801;28;20024;-84
2024/01/05 14:02:10;;;;;;;6.68;3.72;;;;;;;5.14;100.00;99492.19;5095345;28;20064;-83
2024/01/05 14:04:36;;;;;;;7.33;3.90;;;;;;;5.17;100.00;99501.69;5060864;28;20074;-83
2024/01/05 14:07:01;;;;;;;7.13;4.37;;;;;;;5.14;100.00;99492.19;5078446;28;20039;-83
2024/01/05 14:09:27;;;;;;;5.43;3.60;;;;;;;5.13;100.00;99514.72;5044310;28;20035;-83
2024/01/05 14:11:52;;;;;;;6.50;3.53;;;;;;;5.10;100.00;99512.47;5077649;28;20020;-83
2024/01/05 14:14:18;;;;;;;4.78;3.08;;;;;;;5.10;100.00;99524.03;5078476;28;20036;-82
2024/01/05 14:16:43;;;;;;;7.00;3.43;;;;;;;5.10;100.00;99533.97;5095023;28;20036;-83
2024/01/05 14:19:08;;;;;;;4.77;3.53;;;;;;;5.07;100.00;99521.75;5094949;28;20464;-82
2024/01/05 14:21:34;;;;;;;4.97;3.40;;;;;;;5.12;100.00;99513.06;5094910;28;20060;-83
2024/01/05 14:24:01;;;;;;;5.80;3.33;;;;;;;5.07;100.00;99529.84;5095568;28;20574;-83
2024/01/05 14:26:27;;;;;;;6.07;3.30;;;;;;;5.06;100.00;99530.03;5077345;28;20031;-82
2024/01/05 14:28:53;;;;;;;8.27;3.92;;;;;;;5.08;100.00;99525.31;5077937;28;20040;-83
2024/01/05 14:31:35;;;;;;;4.80;3.27;;;;;;;5.06;100.00;99533.56;5095449;28;20031;-85
2024/01/05 14:34:01;;;;;;;4.40;3.05;;;;;;;5.07;100.00;99542.47;5095059;28;20044;-83
2024/01/05 14:36:27;;;;;;;5.95;4.00;;;;;;;5.03;100.00;99543.91;5094572;28;20547;-82
2024/01/05 14:38:53;;;;;;;5.60;4.15;;;;;;;5.04;100.00;99543.69;5076881;28;20529;-82
2024/01/05 14:41:19;;;;;;;7.00;3.92;;;;;;;5.04;100.00;99553.63;5076592;28;20542;-82
2024/01/05 14:43:44;;;;;;;5.85;3.67;;;;;;;5.00;100.00;99547.84;5094776;28;20032;-83
2024/01/05 14:46:11;;;;;;;6.47;4.10;;;;;;;5.01;100.00;99554.06;5075980;28;20032;-83
2024/01/05 14:48:39;;;;;;;5.97;3.88;;;;;;;5.04;100.00;99580.53;5094835;28;20491;-83
2024/01/05 14:51:05;;;;;;;5.65;3.83;;;;;;;5.01;100.00;99564.81;5042807;28;20036;-83
2024/01/05 14:53:38;;;;;;;8.60;4.07;;;;;;;5.01;100.00;99564.81;5094451;28;20095;-83
2024/01/05 14:56:05;;;;;;;7.07;4.00;;;;;;;5.02;100.00;99567.28;5077037;28;20039;-84
2024/01/05 14:58:31;;;;;;;5.75;3.72;;;;;;;5.04;100.00;99567.91;5076831;28;20067;-83
2024/01/05 15:00:56;;;;;;;5.73;3.90;;;;;;;5.02;100.00;99577.19;5076469;28;20456;-83
2024/01/05 15:03:23;;;;;;;6.30;3.63;;;;;;;5.03;100.00;99555.47;5076297;28;20020;-83
2024/01/05 15:05:49;;;;;;;6.90;4.05;;;;;;;5.04;100.00;99578.66;5076618;28;20063;-84
2024/01/05 15:08:15;;;;;;;5.63;4.10;;;;;;;5.05;100.00;99583.00;5076181;28;20083;-83
2024/01/05 15:10:40;;;;;;;9.23;4.27;;;;;;;5.07;100.00;99586.28;5059718;28;20471;-82
2024/01/05 15:13:06;;;;;;;6.82;4.20;;;;;;;5.02;100.00;99593.31;5076221;28;20024;-83
2024/01/05 15:15:31;;;;;;;4.37;3.90;;;;;;;5.04;100.00;99600.16;5076274;28;20032;-83
2024/01/05 15:17:57;;;;;;;6.70;4.20;;;;;;;5.04;100.00;99588.59;5094311;28;20028;-82
2024/01/05 15:20:23;;;;;;;6.68;4.60;;;;;;;5.06;100.00;99618.75;5059455;28;20036;-82
2024/01/05 15:22:49;;;;;;;7.78;4.22;;;;;;;5.07;100.00;99601.59;5059492;28;20509;-83
2024/01/05 15:25:15;;;;;;;7.90;4.63;;;;;;;5.08;100.00;99622.91;5093808;28;20039;-83
2024/01/05 15:27:41;;;;;;;6.20;3.70;;;;;;;5.08;100.00;99614.84;5094617;28;20464;-82
2024/01/05 15:30:07;;;;;;;7.43;4.93;;;;;;;5.07;100.00;99626.63;5079887;28;20484;-83
2024/01/05 15:32:33;;;;;;;7.80;4.68;;;;;;;5.05;100.00;99626.00;5079953;28;20537;-83
2024/01/05 15:34:58;;;;;;;7.85;5.10;;;;;;;5.07;100.00;99631.19;5063152;28;20028;-82
2024/01/05 15:37:24;;;;;;;13.30;4.93;;;;;;;5.08;100.00;99630.16;5080050;28;20034;-83
2024/01/05 15:39:49;;;;;;;9.33;4.93;;;;;;;5.08;100.00;99636.34;5063020;28;20044;-83
2024/01/05 15:42:15;;;;;;;7.67;5.60;;;;;;;5.08;100.00;99647.09;5080048;28;20468;-83
2024/01/05 15:44:40;;;;;;;8.43;5.50;;;;;;;5.08;100.00;99643.59;5079710;28;20048;-86
2024/01/05 15:47:05;;;;;;;7.57;5.43;;;;;;;5.12;100.00;99647.50;5079489;28;20036;-84
2024/01/05 15:49:31;;;;;;;12.13;6.45;;;;;;;5.10;100.00;99657.66;5079979;28;20105;-83
2024/01/05 15:51:57;;;;;;;8.13;5.80;;;;;;;5.05;100.00;99649.41;5097857;28;20036;-83
2024/01/05 15:54:22;;;;;;;10.33;5.70;;;;;;;5.06;100.00;99661.78;5097897;28;20036;-83
2024/01/05 15:56:47;;;;;;;11.30;6.05;;;;;;;5.03;100.00;99664.88;5079207;28;20273;-83
2024/01/05 15:59:13;;;;;;;10.57;6.47;;;;;;;5.08;100.00;99671.31;5097736;28;20473;-83
2024/01/05 16:01:38;;;;;;;9.07;6.27;;;;;;;5.07;100.00;99671.50;5097423;28;20036;-82
2024/01/05 16:04:04;;;;;;;12.00;8.43;;;;;;;5.10;100.00;99682.66;5096362;28;20157;-83
2024/01/05 16:06:29;;;;;;;14.37;8.43;;;;;;;5.11;100.00;99686.19;5078558;28;20028;-84
2024/01/05 16:08:54;;;;;;;17.33;8.52;;;;;;;5.10;100.00;99688.03;5061461;28;20032;-83
2024/01/05 16:11:30;;;;;;;14.25;7.88;;;;;;;5.11;100.00;99699.63;5079015;28;20031;-83
2024/01/05 16:13:59;;;;;;;13.67;7.40;;;;;;;5.11;100.00;99702.31;5096702;28;20162;-83
2024/01/05 16:16:25;;;;;;;12.98;7.90;;;;;;;5.13;100.00;99697.56;5061724;28;20025;-83
2024/01/05 16:18:53;;;;;;;13.40;8.30;;;;;;;5.12;100.00;99703.97;5079022;28;20056;-83
2024/01/05 16:21:21;;;;;;;12.55;8.75;;;;;;;5.13;100.00;99699.44;5077951;28;20127;-82
2024/01/05 16:23:47;;;;;;;17.30;9.63;;;;;;;5.13;100.00;99704.81;5078044;28;20085;-83
2024/01/05 16:26:13;;;;;;;16.00;9.07;;;;;;;5.13;100.00;99713.69;5096540;28;20043;-83
2024/01/05 16:28:38;;;;;;;17.48;10.57;;;;;;;5.11;100.00;99710.41;5061650;28;20028;-83
2024/01/05 16:31:04;;;;;;;16.70;10.33;;;;;;;5.14;100.00;99704.59;5096409;28;20449;-83
2024/01/05 16:33:30;;;;;;;15.67;9.60;;;;;;;5.17;100.00;99714.13;5096038;28;20020;-86
2024/01/05 16:35:57;;;;;;;16.35;9.18;;;;;;;5.13;100.00;99712.88;5078318;28;20395;-82
2024/01/05 16:38:22;;;;;;;19.67;9.50;;;;;;;5.13;100.00;99716.38;5077885;28;20032;-83
2024/01/05 16:40:47;;;;;;;20.13;10.30;;;;;;;5.09;100.00;99712.44;5076744;28;20154;-83
2024/01/05 16:43:16;;;;;;;18.23;10.40;;;;;;;5.13;100.00;99729.81;5095741;28;20036;-83
2024/01/05 16:45:42;;;;;;;19.13;10.52;;;;;;;5.13;100.00;99721.75;5095679;28;20036;-83
2024/01/05 16:48:07;;;;;;;15.52;10.60;;;;;;;5.13;100.00;99723.63;5096475;28;20042;-86
2024/01/05 16:50:34;;;;;;;16.30;10.93;;;;;;;5.12;100.00;99725.47;5096121;28;20028;-84
2024/01/05 16:52:59;;;;;;;17.38;9.93;;;;;;;5.13;100.00;99739.75;5061275;28;20031;-83
2024/01/05 16:55:25;;;;;;;17.37;11.53;;;;;;;5.14;100.00;99731.50;5095871;28;20028;-83
2024/01/05 16:57:51;;;;;;;19.97;10.87;;;;;;;5.12;100.00;99738.09;5061285;28;20480;-82
2024/01/05 17:00:17;;;;;;;19.00;11.48;;;;;;;5.15;100.00;99737.69;5078245;28;20028;-83
2024/01/05 17:02:43;;;;;;;16.15;10.23;;;;;;;5.16;100.00;99750.09;5095922;28;20028;-82
2024/01/05 17:05:08;;;;;;;18.83;11.83;;;;;;;5.17;100.00;99752.59;5077154;28;20054;-82